createdAt,value
2019-01-16T00:01:04.353Z,57.95
2019-01-16T00:03:45.950Z,58.40
2019-01-16T00:06:37.788Z,58.43
2019-01-16T00:09:26.765Z,58.17
2019-01-16T00:12:25.892Z,58.04
2019-01-16T00:15:17.998Z,57.35
2019-01-16T00:18:04.944Z,57.22
2019-01-16T00:20:56.641Z,57.33
2019-01-16T00:23:38.131Z,57.84
2019-01-16T00:26:19.797Z,57.57
2019-01-16T00:29:09.187Z,57.96
2019-01-16T00:31:56.276Z,59.32
2019-01-16T00:35:03.341Z,59.00
2019-01-16T00:37:52.868Z,58.62
2019-01-16T00:40:40.711Z,58.26
2019-01-16T00:43:26.318Z,58.12
2019-01-16T00:46:20.666Z,56.92
2019-01-16T00:49:12.455Z,56.65
2019-01-16T00:52:04.674Z,56.69
2019-01-16T00:54:59.778Z,56.64
2019-01-16T00:57:54.606Z,57.37
2019-01-16T01:00:39.818Z,57.95
2019-01-16T01:03:31.854Z,57.66
2019-01-16T01:06:18.239Z,57.37
2019-01-16T01:09:07.297Z,56.84
2019-01-16T01:12:02.208Z,57.95
2019-01-16T01:14:55.902Z,57.62
2019-01-16T01:17:42.380Z,58.17
2019-01-16T01:20:29.216Z,58.18
2019-01-16T01:23:16.862Z,58.76
2019-01-16T01:25:56.716Z,58.84
2019-01-16T01:28:54.847Z,58.26
2019-01-16T01:31:35.660Z,58.36
2019-01-16T01:34:19.717Z,58.23
2019-01-16T01:37:05.378Z,58.50
2019-01-16T01:39:52.265Z,59.28
2019-01-16T01:42:33.377Z,59.65
2019-01-16T01:45:25.343Z,58.57
2019-01-16T01:48:14.388Z,57.94
2019-01-16T01:51:01.849Z,57.33
2019-01-16T01:53:37.322Z,56.92
2019-01-16T01:56:26.385Z,56.45
2019-01-16T01:59:14.181Z,56.59
2019-01-16T02:01:56.693Z,57.10
2019-01-16T02:04:38.837Z,57.29
2019-01-16T02:07:30.947Z,57.40
2019-01-16T02:10:32.398Z,56.94
2019-01-16T02:13:25.230Z,57.51
2019-01-16T02:16:15.291Z,57.60
2019-01-16T02:19:06.944Z,57.83
2019-01-16T02:21:56.557Z,58.23
2019-01-16T02:24:44.273Z,58.46
2019-01-16T02:27:49.681Z,58.01
2019-01-16T02:30:34.715Z,57.62
2019-01-16T02:33:28.852Z,57.44
2019-01-16T02:36:27.904Z,57.78
2019-01-16T02:39:14.966Z,57.83
2019-01-16T02:41:57.406Z,57.63
2019-01-16T02:44:43.358Z,57.12
2019-01-16T02:47:36.904Z,56.40
2019-01-16T02:50:25.859Z,58.22
2019-01-16T02:53:13.560Z,57.49
2019-01-16T02:56:02.539Z,57.58
2019-01-16T02:58:48.629Z,56.90
2019-01-16T03:01:36.415Z,57.13
2019-01-16T03:04:28.207Z,57.41
2019-01-16T03:07:29.333Z,57.79
2019-01-16T03:10:27.231Z,57.16
2019-01-16T03:13:19.108Z,57.22
2019-01-16T03:16:10.248Z,57.35
2019-01-16T03:19:04.591Z,56.71
2019-01-16T03:21:48.250Z,57.68
2019-01-16T03:24:26.328Z,57.47
2019-01-16T03:27:30.886Z,56.32
2019-01-16T03:30:22.058Z,56.74
2019-01-16T03:33:07.077Z,56.74
2019-01-16T03:36:06.342Z,57.74
2019-01-16T03:38:46.010Z,57.97
2019-01-16T03:41:29.414Z,58.12
2019-01-16T03:44:18.580Z,57.91
2019-01-16T03:46:56.192Z,58.10
2019-01-16T03:49:36.043Z,58.15
2019-01-16T03:52:25.074Z,57.94
2019-01-16T03:55:14.011Z,58.04
2019-01-16T03:58:08.707Z,57.14
2019-01-16T04:00:50.464Z,56.99
2019-01-16T04:03:38.307Z,57.82
2019-01-16T04:06:42.544Z,57.58
2019-01-16T04:09:34.297Z,57.36
2019-01-16T04:12:14.287Z,57.83
2019-01-16T04:15:09.149Z,57.83
2019-01-16T04:17:58.028Z,57.75
2019-01-16T04:20:38.672Z,57.41
2019-01-16T04:23:27.694Z,57.62
2019-01-16T04:26:34.843Z,57.60
2019-01-16T04:29:22.739Z,57.27
2019-01-16T04:32:10.416Z,57.47
2019-01-16T04:34:57.954Z,57.38
2019-01-16T04:37:48.398Z,56.90
2019-01-16T04:40:49.541Z,56.68
2019-01-16T04:43:31.543Z,56.67
2019-01-16T04:46:19.411Z,56.44
2019-01-16T04:48:56.064Z,57.20
2019-01-16T04:51:42.618Z,57.26
2019-01-16T04:54:35.820Z,57.37
2019-01-16T04:57:40.232Z,58.16
2019-01-16T05:00:23.055Z,58.43
2019-01-16T05:03:12.039Z,58.36
2019-01-16T05:05:50.735Z,58.56
2019-01-16T05:08:45.476Z,58.87
2019-01-16T05:11:37.541Z,58.23
2019-01-16T05:14:19.308Z,57.22
2019-01-16T05:17:08.207Z,57.44
2019-01-16T05:19:51.011Z,57.99
2019-01-16T05:22:34.983Z,57.47
2019-01-16T05:25:14.162Z,57.19
2019-01-16T05:28:02.976Z,57.12
2019-01-16T05:30:50.981Z,56.59
2019-01-16T05:33:38.328Z,56.59
2019-01-16T05:36:17.229Z,56.43
2019-01-16T05:39:07.484Z,56.79
2019-01-16T05:42:11.689Z,56.55
2019-01-16T05:45:03.591Z,57.30
2019-01-16T05:47:41.189Z,57.48
2019-01-16T05:50:39.090Z,57.50
2019-01-16T05:53:37.051Z,57.09
2019-01-16T05:56:41.125Z,57.30
2019-01-16T05:59:30.028Z,57.54
2019-01-16T06:02:13.705Z,57.42
2019-01-16T06:05:02.504Z,57.10
2019-01-16T06:07:43.130Z,57.09
2019-01-16T06:10:31.369Z,56.94
2019-01-16T06:13:19.229Z,57.09
2019-01-16T06:16:10.554Z,55.99
2019-01-16T06:19:05.811Z,56.74
2019-01-16T06:22:03.124Z,57.16
2019-01-16T06:24:52.304Z,56.82
2019-01-16T06:27:39.904Z,57.46
2019-01-16T06:30:21.231Z,56.65
2019-01-16T06:33:10.082Z,55.13
2019-01-16T06:35:53.068Z,56.41
2019-01-16T06:38:44.807Z,55.33
2019-01-16T06:41:38.215Z,55.46
2019-01-16T06:44:35.554Z,54.85
2019-01-16T06:47:27.415Z,55.13
2019-01-16T06:50:19.063Z,56.21
2019-01-16T06:52:58.241Z,56.74
2019-01-16T06:55:46.385Z,57.07
2019-01-16T06:58:43.037Z,56.43
2019-01-16T07:01:20.285Z,56.26
2019-01-16T07:04:08.356Z,56.29
2019-01-16T07:06:56.865Z,56.33
2019-01-16T07:09:44.684Z,55.85
2019-01-16T07:12:42.484Z,56.60
2019-01-16T07:15:38.430Z,56.66
2019-01-16T07:18:26.841Z,55.56
2019-01-16T07:21:18.860Z,55.22
2019-01-16T07:24:22.840Z,55.19
2019-01-16T07:27:23.918Z,55.35
2019-01-16T07:30:25.472Z,55.39
2019-01-16T07:33:13.527Z,54.73
2019-01-16T07:36:14.798Z,54.34
2019-01-16T07:39:12.743Z,54.74
2019-01-16T07:42:19.981Z,55.14
2019-01-16T07:44:59.391Z,55.24
2019-01-16T07:48:07.546Z,55.17
2019-01-16T07:50:55.150Z,54.95
2019-01-16T07:53:34.792Z,55.60
2019-01-16T07:56:33.015Z,56.06
2019-01-16T07:59:21.957Z,55.71
2019-01-16T08:02:17.317Z,55.27
2019-01-16T08:05:13.065Z,55.52
2019-01-16T08:08:05.029Z,54.41
2019-01-16T08:10:52.636Z,54.32
2019-01-16T08:13:48.037Z,53.66
2019-01-16T08:16:35.784Z,54.02
2019-01-16T08:19:16.337Z,54.51
2019-01-16T08:22:10.290Z,54.52
2019-01-16T08:25:08.516Z,54.56
2019-01-16T08:28:04.124Z,54.20
2019-01-16T08:30:56.148Z,54.23
2019-01-16T08:33:44.342Z,52.26
2019-01-16T08:36:32.576Z,51.95
2019-01-16T08:39:15.229Z,50.74
2019-01-16T08:42:10.166Z,50.24
2019-01-16T08:44:53.082Z,49.90
2019-01-16T08:47:48.280Z,50.02
2019-01-16T08:50:46.893Z,49.33
2019-01-16T08:53:39.239Z,48.75
2019-01-16T08:56:40.316Z,49.74
2019-01-16T08:59:47.668Z,48.96
2019-01-16T09:02:41.552Z,48.48
2019-01-16T09:05:29.759Z,47.22
2019-01-16T09:08:26.766Z,45.28
2019-01-16T09:11:14.680Z,46.42
2019-01-16T09:14:06.726Z,45.93
2019-01-16T09:16:54.517Z,44.63
2019-01-16T09:19:49.680Z,43.62
2019-01-16T09:22:41.520Z,43.84
2019-01-16T09:25:29.340Z,45.81
2019-01-16T09:28:14.383Z,44.90
2019-01-16T09:31:02.068Z,47.31
2019-01-16T09:33:49.955Z,47.30
2019-01-16T09:36:57.209Z,48.63
2019-01-16T09:39:44.978Z,47.46
2019-01-16T09:42:43.113Z,47.35
2019-01-16T09:45:22.894Z,48.26
2019-01-16T09:48:13.745Z,46.77
2019-01-16T09:51:05.121Z,46.57
2019-01-16T09:53:47.865Z,46.42
2019-01-16T09:56:46.140Z,45.82
2019-01-16T09:59:33.805Z,45.35
2019-01-16T10:02:21.874Z,46.49
2019-01-16T10:05:09.580Z,46.76
2019-01-16T10:07:47.213Z,47.15
2019-01-16T10:10:39.022Z,47.99
2019-01-16T10:13:26.570Z,47.29
2019-01-16T10:16:14.334Z,46.38
2019-01-16T10:19:13.257Z,45.83
2019-01-16T10:22:17.303Z,47.27
2019-01-16T10:24:59.003Z,46.42
2019-01-16T10:27:53.224Z,45.93
2019-01-16T10:30:51.540Z,47.19
2019-01-16T10:33:39.221Z,46.72
2019-01-16T10:36:19.745Z,46.96
2019-01-16T10:39:18.110Z,45.59
2019-01-16T10:42:11.925Z,45.89
2019-01-16T10:44:59.444Z,46.76
2019-01-16T10:47:57.729Z,46.24
2019-01-16T10:50:37.597Z,46.00
2019-01-16T10:53:32.589Z,46.33
2019-01-16T10:56:24.832Z,46.50
2019-01-16T10:59:12.768Z,45.67
2019-01-16T11:02:13.861Z,44.19
2019-01-16T11:05:01.503Z,43.15
2019-01-16T11:07:43.984Z,42.74
2019-01-16T11:10:32.273Z,43.50
2019-01-16T11:13:15.319Z,43.60
2019-01-16T11:16:03.300Z,42.21
2019-01-16T11:18:46.379Z,42.21
2019-01-16T11:21:45.258Z,42.15
2019-01-16T11:24:34.329Z,42.76
2019-01-16T11:27:29.309Z,41.90
2019-01-16T11:30:30.245Z,41.25
2019-01-16T11:33:20.044Z,39.93
2019-01-16T11:36:18.402Z,39.21
2019-01-16T11:39:00.240Z,38.82
2019-01-16T11:42:01.418Z,38.51
2019-01-16T11:44:56.479Z,38.31
2019-01-16T11:47:34.680Z,38.57
2019-01-16T11:50:36.786Z,38.77
2019-01-16T11:53:24.615Z,39.49
2019-01-16T11:56:13.621Z,38.57
2019-01-16T11:59:11.687Z,38.98
2019-01-16T12:02:07.085Z,38.27
2019-01-16T12:04:54.836Z,38.39
2019-01-16T12:07:43.967Z,38.10
2019-01-16T12:10:51.727Z,37.96
2019-01-16T12:13:40.780Z,37.77
2019-01-16T12:16:20.016Z,37.64
2019-01-16T12:19:07.601Z,38.60
2019-01-16T12:22:11.735Z,38.13
2019-01-16T12:25:10.906Z,37.00
2019-01-16T12:27:54.277Z,37.10
2019-01-16T12:30:44.057Z,35.96
2019-01-16T12:33:31.704Z,34.93
2019-01-16T12:39:19.643Z,35.27
2019-01-16T12:42:11.935Z,34.97
2019-01-16T12:44:59.840Z,34.79
2019-01-16T12:48:02.473Z,34.71
2019-01-16T12:51:06.511Z,35.06
2019-01-16T12:53:50.693Z,35.07
2019-01-16T12:56:31.844Z,34.68
2019-01-16T12:59:19.913Z,34.97
2019-01-16T13:02:15.164Z,35.92
2019-01-16T13:05:04.112Z,34.79
2019-01-16T13:08:00.735Z,35.19
2019-01-16T13:11:01.672Z,34.47
2019-01-16T13:14:00.002Z,35.29
2019-01-16T13:16:45.021Z,34.78
2019-01-16T13:19:37.062Z,35.15
2019-01-16T13:22:32.534Z,35.11
2019-01-16T13:25:12.919Z,34.75
2019-01-16T13:28:04.959Z,34.14
2019-01-16T13:30:52.681Z,34.14
2019-01-16T13:33:50.620Z,33.50
2019-01-16T13:36:38.569Z,32.48
2019-01-16T13:39:43.500Z,31.19
2019-01-16T13:42:31.292Z,31.97
2019-01-16T13:45:19.920Z,30.92
2019-01-16T13:48:07.748Z,30.43
2019-01-16T13:51:09.571Z,30.42
2019-01-16T13:54:10.389Z,30.24
2019-01-16T13:57:05.036Z,30.69
2019-01-16T13:59:52.928Z,30.70
2019-01-16T14:02:47.875Z,31.84
2019-01-16T14:05:35.590Z,31.75
2019-01-16T14:08:23.347Z,33.00
2019-01-16T14:11:11.154Z,32.86
2019-01-16T14:14:15.167Z,32.94
2019-01-16T14:17:03.154Z,34.32
2019-01-16T14:19:43.672Z,33.11
2019-01-16T14:22:42.011Z,33.61
2019-01-16T14:25:24.226Z,34.68
2019-01-16T14:28:13.583Z,33.55
2019-01-16T14:31:01.366Z,33.99
2019-01-16T14:33:49.191Z,33.66
2019-01-16T14:36:38.058Z,33.16
2019-01-16T14:39:29.322Z,34.96
2019-01-16T14:42:33.389Z,35.64
2019-01-16T14:45:12.938Z,34.38
2019-01-16T14:47:51.310Z,33.85
2019-01-16T14:50:40.394Z,34.05
2019-01-16T14:53:38.520Z,33.95
2019-01-16T14:56:26.643Z,35.00
2019-01-16T14:59:21.533Z,36.04
2019-01-16T15:02:25.607Z,36.04
2019-01-16T15:05:10.109Z,36.39
2019-01-16T15:07:55.536Z,36.14
2019-01-16T15:10:44.532Z,36.54
2019-01-16T15:13:42.758Z,36.88
2019-01-16T15:16:27.402Z,38.95
2019-01-16T15:19:08.412Z,38.11
2019-01-16T15:21:46.968Z,38.25
2019-01-16T15:24:39.166Z,38.18
2019-01-16T15:27:27.368Z,38.71
2019-01-16T15:30:15.754Z,39.14
2019-01-16T15:33:07.915Z,39.66
2019-01-16T15:35:58.398Z,40.34
2019-01-16T15:38:45.426Z,39.92
2019-01-16T15:41:33.332Z,40.87
2019-01-16T15:44:21.014Z,41.19
2019-01-16T15:46:59.584Z,42.13
2019-01-16T15:49:46.955Z,42.67
2019-01-16T15:52:34.618Z,41.48
2019-01-16T15:55:39.686Z,42.76
2019-01-16T15:58:21.268Z,42.88
2019-01-16T16:01:09.639Z,45.19
2019-01-16T16:03:57.358Z,44.61
2019-01-16T16:06:53.648Z,44.42
2019-01-16T16:09:34.294Z,45.54
2019-01-16T16:12:17.994Z,45.91
2019-01-16T16:15:22.418Z,46.15
2019-01-16T16:18:29.388Z,46.78
2019-01-16T16:21:30.567Z,47.60
2019-01-16T16:24:18.020Z,47.42
2019-01-16T16:26:59.984Z,47.05
2019-01-16T16:29:54.782Z,47.52
2019-01-16T16:32:42.755Z,47.84
2019-01-16T16:35:30.421Z,48.08
2019-01-16T16:38:25.458Z,48.10
2019-01-16T16:41:20.572Z,48.55
2019-01-16T16:44:05.590Z,48.57
2019-01-16T16:46:52.478Z,49.28
2019-01-16T16:49:31.838Z,49.21
2019-01-16T16:52:27.595Z,50.25
2019-01-16T16:55:31.691Z,50.97
2019-01-16T16:58:24.257Z,50.31
2019-01-16T17:01:09.522Z,50.31
2019-01-16T17:04:04.328Z,50.47
2019-01-16T17:06:48.953Z,50.93
2019-01-16T17:09:38.870Z,51.35
2019-01-16T17:12:22.688Z,51.67
2019-01-16T17:15:14.842Z,52.18
2019-01-16T17:18:09.583Z,52.10
2019-01-16T17:20:56.656Z,52.70
2019-01-16T17:23:44.184Z,53.52
2019-01-16T17:26:32.853Z,53.71
2019-01-16T17:29:20.740Z,52.87
2019-01-16T17:32:19.463Z,52.93
2019-01-16T17:35:02.551Z,52.94
2019-01-16T17:37:50.520Z,53.72
2019-01-16T17:40:41.607Z,53.59
2019-01-16T17:43:35.756Z,53.75
2019-01-16T17:46:23.551Z,53.74
2019-01-16T17:49:08.232Z,53.55
2019-01-16T17:51:57.516Z,53.91
2019-01-16T17:54:53.587Z,54.21
2019-01-16T17:57:42.567Z,53.85
2019-01-16T18:00:36.863Z,54.08
2019-01-16T18:03:14.356Z,54.25
2019-01-16T18:05:56.845Z,54.63
2019-01-16T18:08:47.669Z,53.47
2019-01-16T18:11:35.395Z,53.62
2019-01-16T18:14:28.963Z,52.93
2019-01-16T18:17:16.724Z,50.38
2019-01-16T18:19:58.578Z,50.23
2019-01-16T18:22:45.090Z,50.57
2019-01-16T18:25:49.129Z,50.15
2019-01-16T18:28:36.298Z,50.97
2019-01-16T18:31:24.334Z,50.82
2019-01-16T18:34:16.396Z,50.81
2019-01-16T18:37:01.876Z,50.32
2019-01-16T18:39:57.051Z,50.33
2019-01-16T18:42:49.008Z,50.17
2019-01-16T18:45:43.998Z,50.07
2019-01-16T18:48:38.860Z,50.90
2019-01-16T18:51:26.988Z,51.63
2019-01-16T18:54:26.722Z,51.04
2019-01-16T18:57:14.527Z,50.53
2019-01-16T19:00:09.588Z,50.33
2019-01-16T19:03:08.662Z,50.29
2019-01-16T19:06:09.918Z,49.19
2019-01-16T19:08:58.919Z,50.17
2019-01-16T19:12:00.296Z,50.23
2019-01-16T19:14:55.154Z,51.09
2019-01-16T19:17:42.747Z,50.88
2019-01-16T19:20:29.535Z,50.13
2019-01-16T19:23:07.758Z,49.71
2019-01-16T19:25:54.416Z,49.25
2019-01-16T19:28:42.005Z,49.77
2019-01-16T19:31:29.884Z,49.76
2019-01-16T19:34:26.420Z,50.47
2019-01-16T19:37:34.877Z,50.05
2019-01-16T19:40:34.338Z,51.24
2019-01-16T19:43:38.188Z,51.73
2019-01-16T19:46:29.266Z,51.63
2019-01-16T19:49:22.735Z,51.83
2019-01-16T19:51:59.728Z,52.12
2019-01-16T19:54:57.876Z,51.68
2019-01-16T19:57:44.657Z,51.61
2019-01-16T20:00:42.978Z,51.43
2019-01-16T20:03:47.359Z,51.11
2019-01-16T20:06:35.036Z,51.78
2019-01-16T20:09:44.873Z,51.17
2019-01-16T20:12:37.054Z,51.06
2019-01-16T20:15:25.638Z,51.07
2019-01-16T20:18:13.416Z,51.51
2019-01-16T20:21:12.357Z,51.69
2019-01-16T20:24:13.880Z,52.00
2019-01-16T20:27:05.866Z,51.73
2019-01-16T20:29:54.202Z,51.39
2019-01-16T20:32:40.410Z,51.46
2019-01-16T20:35:42.002Z,51.74
2019-01-16T20:38:33.866Z,51.73
2019-01-16T20:41:22.976Z,52.01
2019-01-16T20:44:10.619Z,51.82
2019-01-16T20:46:57.728Z,51.93
2019-01-16T20:49:45.203Z,52.48
2019-01-16T20:52:40.149Z,51.63
2019-01-16T20:55:47.495Z,51.01
2019-01-16T20:58:33.935Z,51.16
2019-01-16T21:01:22.137Z,50.83
2019-01-16T21:04:29.491Z,50.35
2019-01-16T21:07:17.989Z,49.79
2019-01-16T21:10:16.308Z,50.25
2019-01-16T21:13:01.122Z,50.48
2019-01-16T21:16:00.194Z,50.36
2019-01-16T21:18:57.997Z,50.65
2019-01-16T21:21:40.198Z,49.59
2019-01-16T21:24:32.500Z,49.10
2019-01-16T21:27:12.984Z,48.90
2019-01-16T21:30:07.863Z,48.99
2019-01-16T21:32:50.715Z,49.29
2019-01-16T21:35:38.513Z,49.21
2019-01-16T21:38:18.467Z,49.45
2019-01-16T21:41:22.607Z,50.63
2019-01-16T21:44:12.336Z,51.12
2019-01-16T21:46:58.791Z,49.73
2019-01-16T21:49:50.273Z,50.75
2019-01-16T21:52:57.390Z,50.93
2019-01-16T21:55:45.382Z,49.91
2019-01-16T21:58:37.380Z,48.84
2019-01-16T22:01:25.708Z,48.16
2019-01-16T22:04:12.411Z,48.12
2019-01-16T22:06:59.463Z,47.94
2019-01-16T22:09:47.455Z,47.00
2019-01-16T22:12:28.408Z,46.77
2019-01-16T22:15:24.598Z,46.91
2019-01-16T22:18:31.827Z,46.83
2019-01-16T22:21:15.186Z,46.61
2019-01-16T22:27:08.573Z,46.22
2019-01-16T22:29:59.153Z,46.32
2019-01-16T22:32:53.997Z,46.17
2019-01-16T22:35:52.209Z,46.76
2019-01-16T22:38:51.146Z,47.38
2019-01-16T22:41:29.807Z,48.11
2019-01-16T22:44:13.115Z,48.18
2019-01-16T22:47:02.064Z,48.31
2019-01-16T22:49:40.872Z,49.08
2019-01-16T22:52:29.041Z,48.69
2019-01-16T22:55:20.727Z,48.70
2019-01-16T22:58:09.771Z,48.82
2019-01-16T23:01:01.951Z,49.53
2019-01-16T23:03:51.004Z,48.39
2019-01-16T23:06:37.909Z,47.86
2019-01-16T23:09:36.645Z,47.60
2019-01-16T23:12:38.262Z,51.17
2019-01-16T23:15:28.609Z,55.38
2019-01-16T23:18:23.389Z,54.28
2019-01-16T23:21:08.452Z,51.54
2019-01-16T23:24:06.645Z,50.71
2019-01-16T23:27:07.922Z,47.74
2019-01-16T23:29:50.448Z,46.04
2019-01-16T23:32:43.758Z,46.38
2019-01-16T23:35:38.896Z,45.54
2019-01-16T23:38:26.871Z,45.50
2019-01-16T23:41:14.514Z,49.79
2019-01-16T23:44:11.173Z,47.29
2019-01-16T23:46:57.675Z,46.22
2019-01-16T23:49:58.984Z,46.51
2019-01-16T23:52:46.582Z,46.47
2019-01-16T23:55:25.445Z,46.81
2019-01-16T23:58:14.461Z,46.62
